Time;durP1;ratioP1;P1;durP2;ratioP2;P2;SDS_P1;SDS_P2;PMS_P1;PMS_P2;Temp;Humidity;BMP_temperature;BMP_pressure;BME280_temperature;BME280_humidity;BME280_pressure;Samples;Min_cycle;Max_cycle;Signal;HPM_P1;HPM_P2
2021/12/21 00:00:19;;;;;;;7.20;2.97;;;17.60;59.40;;;;;;5022421;28;20584;-74
2021/12/21 00:02:47;;;;;;;8.60;3.25;;;17.60;60.00;;;;;;5038736;28;20029;-77
2021/12/21 00:05:18;;;;;;;8.18;3.25;;;17.60;59.30;;;;;;5040272;28;20022;-75
2021/12/21 00:07:45;;;;;;;5.82;2.50;;;17.60;59.20;;;;;;5038504;28;20477;-76
2021/12/21 00:10:12;;;;;;;6.32;2.55;;;17.50;59.20;;;;;;5021292;28;20575;-75
2021/12/21 00:12:46;;;;;;;10.38;3.30;;;17.50;60.40;;;;;;5020299;28;20155;-74
2021/12/21 00:15:22;;;;;;;7.30;3.22;;;17.50;61.20;;;;;;5038895;28;20025;-76
2021/12/21 00:20:29;;;;;;;8.98;3.17;;;17.60;62.50;;;;;;5038216;28;20456;-75
2021/12/21 00:25:32;;;;;;;8.77;3.15;;;17.60;62.40;;;;;;5040094;28;20071;-74
2021/12/21 00:27:58;;;;;;;7.03;3.70;;;17.50;61.80;;;;;;5020418;28;20176;-74
2021/12/21 00:30:23;;;;;;;5.35;3.00;;;17.50;61.80;;;;;;5039959;28;20664;-75
2021/12/21 00:32:49;;;;;;;6.57;2.80;;;17.50;61.70;;;;;;5038221;28;20432;-74
2021/12/21 00:35:15;;;;;;;7.22;3.03;;;17.50;61.60;;;;;;5020520;28;20044;-75
2021/12/21 00:37:42;;;;;;;8.48;3.30;;;17.50;61.50;;;;;;5038965;28;20045;-75
2021/12/21 00:40:09;;;;;;;8.65;4.13;;;17.50;61.50;;;;;;5020750;28;20038;-74
2021/12/21 00:42:35;;;;;;;12.13;3.55;;;17.50;61.50;;;;;;5038373;28;20037;-75
2021/12/21 00:45:01;;;;;;;5.82;3.05;;;17.50;61.50;;;;;;5038163;28;20112;-75
2021/12/21 00:47:26;;;;;;;8.30;3.30;;;17.50;61.40;;;;;;5022024;28;20067;-76
2021/12/21 00:49:59;;;;;;;6.55;2.97;;;17.40;61.30;;;;;;5038811;28;20029;-74
2021/12/21 00:52:25;;;;;;;6.43;3.05;;;17.40;61.20;;;;;;5019561;28;20048;-74
2021/12/21 00:54:51;;;;;;;8.82;3.38;;;17.40;61.30;;;;;;5037658;28;20124;-74
2021/12/21 00:57:17;;;;;;;7.10;3.00;;;17.40;61.10;;;;;;5037762;28;20107;-75
2021/12/21 00:59:43;;;;;;;7.80;3.33;;;17.40;61.10;;;;;;5038128;28;20055;-74
2021/12/21 01:02:09;;;;;;;5.43;2.55;;;17.40;61.20;;;;;;5037413;28;20033;-75
2021/12/21 01:04:40;;;;;;;6.95;3.20;;;17.40;60.80;;;;;;5020831;28;20075;-74
2021/12/21 01:07:17;;;;;;;5.15;2.92;;;17.40;60.70;;;;;;5038550;28;20033;-75
2021/12/21 01:12:14;;;;;;;5.65;2.80;;;17.50;61.20;;;;;;5039618;28;20055;-75
2021/12/21 01:19:43;;;;;;;6.05;2.78;;;;;;;;;;5037992;28;20496;-76
2021/12/21 01:35:11;;;;;;;6.07;3.20;;;17.50;75.20;;;;;;5037684;28;20041;-74
2021/12/21 01:37:58;;;;;;;6.88;3.03;;;17.50;75.40;;;;;;5038326;28;20037;-74
2021/12/21 01:40:36;;;;;;;7.80;3.13;;;17.50;75.40;;;;;;5037518;28;20076;-75
2021/12/21 01:51:01;;;;;;;6.05;2.97;;;17.50;75.60;;;;;;5038062;28;20036;-75
2021/12/21 01:53:27;;;;;;;7.97;3.08;;;17.50;75.60;;;;;;5037021;28;20021;-75
2021/12/21 01:55:53;;;;;;;8.23;2.70;;;17.50;75.60;;;;;;5036070;28;20039;-75
2021/12/21 01:58:19;;;;;;;5.95;2.80;;;17.50;75.60;;;;;;5019334;28;20060;-76
2021/12/21 02:00:45;;;;;;;6.03;3.13;;;17.50;75.60;;;;;;5037562;28;20105;-75
2021/12/21 02:03:11;;;;;;;6.18;2.83;;;17.50;75.60;;;;;;5036434;28;20056;-76
2021/12/21 02:05:37;;;;;;;5.63;2.95;;;17.50;75.70;;;;;;5036631;28;20053;-75
2021/12/21 02:08:04;;;;;;;5.00;2.70;;;17.50;75.60;;;;;;5036947;28;20445;-75
2021/12/21 02:10:30;;;;;;;6.70;2.88;;;17.50;75.70;;;;;;5019297;28;20497;-75
2021/12/21 02:12:56;;;;;;;8.60;3.17;;;17.50;75.80;;;;;;5038538;28;20327;-76
2021/12/21 02:15:24;;;;;;;5.15;2.63;;;17.50;75.60;;;;;;5036714;28;20539;-77
2021/12/21 02:23:12;;;;;;;6.07;3.22;;;17.50;75.50;;;;;;5036857;28;20025;-75
2021/12/21 02:28:45;;;;;;;5.88;3.05;;;17.50;75.60;;;;;;5036270;28;20507;-76
2021/12/21 02:31:09;;;;;;;;;;;17.50;75.50;;;;;;5038545;28;20048;-75
2021/12/21 02:33:35;;;;;;;7.95;3.40;;;17.50;75.40;;;;;;5037979;28;20383;-75
2021/12/21 02:36:03;;;;;;;5.50;3.03;;;17.50;75.50;;;;;;5035948;28;20566;-75
2021/12/21 02:38:29;;;;;;;7.45;3.15;;;17.50;75.40;;;;;;5036786;28;20484;-76
2021/12/21 02:40:55;;;;;;;7.28;3.45;;;17.50;75.60;;;;;;5039074;28;20036;-74
2021/12/21 02:43:21;;;;;;;6.28;2.97;;;17.50;75.70;;;;;;5035095;28;20021;-75
2021/12/21 02:45:47;;;;;;;6.80;3.13;;;17.50;75.60;;;;;;5037053;28;20512;-75
2021/12/21 02:48:13;;;;;;;7.03;2.97;;;17.50;75.60;;;;;;5023949;28;20017;-77
2021/12/21 02:50:40;;;;;;;6.93;3.20;;;17.50;75.70;;;;;;5031060;28;20030;-75
2021/12/21 02:53:08;;;;;;;4.93;2.97;;;17.50;75.60;;;;;;5042540;28;20094;-74
2021/12/21 02:55:34;;;;;;;4.85;2.70;;;17.50;75.60;;;;;;5040126;28;20503;-75
2021/12/21 02:58:00;;;;;;;6.88;3.22;;;17.50;75.50;;;;;;5035286;28;20029;-74
2021/12/21 03:00:27;;;;;;;5.88;2.67;;;17.50;75.60;;;;;;5036409;28;20108;-76
2021/12/21 03:02:53;;;;;;;7.60;2.90;;;17.50;75.60;;;;;;5035412;28;20029;-75
2021/12/21 03:05:20;;;;;;;6.43;3.20;;;17.50;75.70;;;;;;5035738;28;20417;-76
2021/12/21 03:10:23;;;;;;;6.22;2.78;;;17.50;75.60;;;;;;5037756;28;20052;-75
2021/12/21 03:15:23;;;;;;;7.65;2.90;;;17.50;75.60;;;;;;5040332;28;20029;-75
2021/12/21 03:17:50;;;;;;;6.45;3.03;;;17.50;75.50;;;;;;5021267;28;20166;-75
2021/12/21 03:20:16;;;;;;;7.38;3.13;;;17.50;75.70;;;;;;5039400;28;20067;-75
2021/12/21 03:22:42;;;;;;;5.32;3.10;;;17.50;75.50;;;;;;5040019;28;20029;-76
2021/12/21 03:25:09;;;;;;;5.45;3.25;;;17.50;75.60;;;;;;5038764;28;20030;-75
2021/12/21 03:27:34;;;;;;;7.22;3.65;;;17.50;75.60;;;;;;5040824;28;20049;-75
2021/12/21 03:30:00;;;;;;;5.80;2.92;;;17.50;75.60;;;;;;5039053;28;20060;-74
2021/12/21 03:32:26;;;;;;;6.88;3.00;;;17.50;75.50;;;;;;5054549;28;20017;-75
2021/12/21 03:34:52;;;;;;;5.00;3.00;;;17.50;75.60;;;;;;5022298;28;20403;-75
2021/12/21 03:37:17;;;;;;;7.72;3.15;;;17.50;75.50;;;;;;5039387;28;20103;-75
2021/12/21 03:39:45;;;;;;;6.38;3.40;;;17.50;75.60;;;;;;5039991;28;20044;-75
2021/12/21 03:42:13;;;;;;;5.10;2.90;;;17.50;75.50;;;;;;5023642;28;20044;-75
2021/12/21 03:44:39;;;;;;;7.28;3.45;;;17.50;75.30;;;;;;5039522;28;20095;-74
2021/12/21 03:47:09;;;;;;;7.43;2.95;;;17.50;75.50;;;;;;5038742;28;20437;-75
2021/12/21 03:52:13;;;;;;;8.63;3.13;;;17.50;75.40;;;;;;5038679;28;20021;-75
2021/12/21 03:54:40;;;;;;;7.63;3.38;;;17.50;75.30;;;;;;5039067;28;20083;-75
2021/12/21 03:57:06;;;;;;;7.22;3.22;;;17.50;75.30;;;;;;5039553;28;20047;-75
2021/12/21 03:59:32;;;;;;;9.35;3.53;;;17.50;75.30;;;;;;5040355;28;20033;-75
2021/12/21 04:01:58;;;;;;;7.10;3.05;;;17.50;75.20;;;;;;5020863;28;20409;-75
2021/12/21 04:04:25;;;;;;;6.97;3.17;;;17.50;75.10;;;;;;5020446;28;20040;-75
2021/12/21 04:06:51;;;;;;;7.40;3.72;;;17.50;75.00;;;;;;5020956;28;20454;-75
2021/12/21 04:09:17;;;;;;;6.30;3.22;;;17.50;75.00;;;;;;5038167;28;20034;-75
2021/12/21 04:11:43;;;;;;;6.32;3.03;;;17.50;75.20;;;;;;5041045;28;20052;-76
2021/12/21 04:14:09;;;;;;;5.35;3.38;;;17.50;75.20;;;;;;5038593;28;20548;-75
2021/12/21 04:16:35;;;;;;;8.55;3.97;;;17.50;75.20;;;;;;5038474;28;20033;-75
2021/12/21 04:19:00;;;;;;;6.80;3.80;;;17.50;75.20;;;;;;5038285;28;20025;-75
2021/12/21 04:21:26;;;;;;;7.63;3.97;;;17.50;75.30;;;;;;5037948;28;20033;-75
2021/12/21 04:23:52;;;;;;;6.10;3.42;;;17.50;75.30;;;;;;5038554;28;20028;-75
2021/12/21 04:26:18;;;;;;;6.88;3.08;;;17.50;75.50;;;;;;5038211;28;20390;-75
2021/12/21 04:28:45;;;;;;;5.53;3.15;;;17.50;75.40;;;;;;5038615;28;20485;-75
2021/12/21 04:31:11;;;;;;;6.57;3.35;;;17.50;75.30;;;;;;5038246;28;20116;-74
2021/12/21 04:33:39;;;;;;;6.55;3.17;;;17.50;75.20;;;;;;5038578;28;20066;-75
2021/12/21 04:36:06;;;;;;;8.90;3.63;;;17.50;75.30;;;;;;5037870;28;20132;-75
2021/12/21 04:38:36;;;;;;;7.32;3.92;;;17.50;75.40;;;;;;5038560;28;20028;-75
2021/12/21 04:41:09;;;;;;;6.13;3.40;;;17.50;75.50;;;;;;5038353;28;20126;-75
2021/12/21 04:43:35;;;;;;;7.32;4.25;;;17.50;75.00;;;;;;5039040;28;20032;-74
2021/12/21 04:46:01;;;;;;;8.23;3.70;;;17.50;75.00;;;;;;5037384;28;20036;-75
2021/12/21 04:48:27;;;;;;;6.10;3.10;;;17.50;75.10;;;;;;5021068;28;20063;-74
2021/12/21 04:50:53;;;;;;;8.65;3.28;;;17.50;75.00;;;;;;5038477;28;20033;-75
2021/12/21 04:53:19;;;;;;;7.05;3.53;;;17.50;75.10;;;;;;5036831;28;20029;-75
2021/12/21 04:55:45;;;;;;;7.10;3.92;;;17.50;75.70;;;;;;5038400;28;20040;-75
2021/12/21 04:58:11;;;;;;;6.55;3.85;;;17.50;75.00;;;;;;5037367;28;20044;-75
2021/12/21 05:00:37;;;;;;;7.32;3.72;;;17.50;75.50;;;;;;5039001;28;20519;-76
2021/12/21 05:03:04;;;;;;;9.40;3.88;;;17.50;75.30;;;;;;5018695;28;20496;-75
2021/12/21 05:05:30;;;;;;;9.77;3.80;;;17.50;76.20;;;;;;5037593;28;20546;-74
2021/12/21 05:08:07;;;;;;;8.15;3.40;;;17.50;75.60;;;;;;5039721;28;20029;-76
2021/12/21 05:10:52;;;;;;;7.57;3.97;;;17.50;75.60;;;;;;5036370;28;20401;-75
2021/12/21 05:13:20;;;;;;;8.82;3.92;;;17.50;75.50;;;;;;5036738;28;20021;-75
2021/12/21 05:15:46;;;;;;;8.70;3.40;;;17.50;75.50;;;;;;5037408;28;20043;-76
2021/12/21 05:18:13;;;;;;;7.55;3.97;;;17.50;75.60;;;;;;5019068;28;20116;-75
2021/12/21 05:20:39;;;;;;;6.68;3.38;;;17.50;75.80;;;;;;5039561;28;20144;-75
2021/12/21 05:23:05;;;;;;;7.78;4.00;;;17.50;75.70;;;;;;5022779;28;20024;-75
2021/12/21 05:25:31;;;;;;;8.43;3.65;;;17.50;75.90;;;;;;5038371;28;20043;-75
2021/12/21 05:27:57;;;;;;;9.70;3.88;;;17.50;76.10;;;;;;5037759;28;20513;-76
2021/12/21 05:30:23;;;;;;;9.80;3.80;;;17.50;76.30;;;;;;5019198;28;20035;-75
2021/12/21 05:32:54;;;;;;;9.50;3.85;;;17.50;76.20;;;;;;5037063;28;20059;-75
2021/12/21 05:35:20;;;;;;;8.18;3.47;;;17.50;76.10;;;;;;5036373;28;20040;-75
2021/12/21 05:37:48;;;;;;;6.63;3.85;;;17.50;76.30;;;;;;5039628;28;20400;-75
2021/12/21 05:40:16;;;;;;;9.15;4.28;;;17.50;76.00;;;;;;5036139;28;20032;-75
2021/12/21 05:42:47;;;;;;;8.82;3.38;;;17.50;76.00;;;;;;5037723;28;20448;-75
2021/12/21 05:45:17;;;;;;;8.07;3.80;;;17.50;76.00;;;;;;5021300;28;21731;-75
2021/12/21 05:47:43;;;;;;;8.63;4.53;;;17.50;76.00;;;;;;5036326;28;20721;-75
2021/12/21 05:50:15;;;;;;;6.72;3.90;;;17.50;75.90;;;;;;5018342;28;20025;-75
2021/12/21 05:52:42;;;;;;;8.90;4.18;;;17.50;75.90;;;;;;5020495;28;20119;-75
2021/12/21 05:55:08;;;;;;;8.40;3.63;;;17.50;76.00;;;;;;5036995;28;20050;-75
2021/12/21 05:57:34;;;;;;;7.70;4.15;;;17.50;76.00;;;;;;5036720;28;20033;-75
2021/12/21 06:00:00;;;;;;;6.18;3.67;;;17.50;76.10;;;;;;5037742;28;20061;-75
2021/12/21 06:02:26;;;;;;;6.82;3.13;;;17.50;76.10;;;;;;5037748;28;20532;-75
2021/12/21 06:04:53;;;;;;;9.20;3.95;;;17.50;76.30;;;;;;5037039;28;20041;-76
2021/12/21 06:07:18;;;;;;;7.38;3.03;;;17.50;76.60;;;;;;5018955;28;20532;-75
2021/12/21 06:09:47;;;;;;;7.70;3.53;;;17.50;76.70;;;;;;5037144;28;20025;-74
2021/12/21 06:12:26;;;;;;;7.88;4.03;;;17.50;76.80;;;;;;5036557;28;20116;-75
2021/12/21 06:23:31;;;;;;;7.55;3.83;;;17.50;76.80;;;;;;5035434;28;20043;-75
2021/12/21 06:26:02;;;;;;;7.63;4.18;;;17.50;76.50;;;;;;5036123;28;20488;-75
2021/12/21 06:28:28;;;;;;;6.50;3.30;;;17.60;76.50;;;;;;5017147;28;21654;-75
2021/12/21 06:30:55;;;;;;;8.52;4.25;;;17.60;76.50;;;;;;5036275;28;20013;-75
2021/12/21 06:33:20;;;;;;;6.85;4.15;;;17.60;76.50;;;;;;5036494;28;20056;-75
2021/12/21 06:35:46;;;;;;;6.25;3.60;;;17.60;76.50;;;;;;5038777;28;20067;-76
2021/12/21 06:38:12;;;;;;;7.95;3.83;;;17.60;76.30;;;;;;5039061;28;20080;-75
2021/12/21 06:40:38;;;;;;;11.60;3.85;;;17.60;76.30;;;;;;5037305;28;20047;-75
2021/12/21 06:43:04;;;;;;;8.15;4.22;;;17.60;76.30;;;;;;5042061;28;20017;-75
2021/12/21 06:46:01;;;;;;;8.07;3.83;;;17.60;76.40;;;;;;5030415;28;20128;-75
2021/12/21 06:53:40;;;;;;;8.75;3.65;;;17.70;76.40;;;;;;5051430;28;20396;-75
2021/12/21 06:56:07;;;;;;;6.85;3.75;;;17.70;76.40;;;;;;5050739;28;20386;-75
2021/12/21 06:58:33;;;;;;;5.57;3.65;;;17.70;76.50;;;;;;5051096;28;20036;-75
2021/12/21 07:00:59;;;;;;;8.57;4.15;;;17.70;76.40;;;;;;5050842;28;20431;-74
2021/12/21 07:03:25;;;;;;;7.55;4.38;;;17.70;76.50;;;;;;5032957;28;20025;-75
2021/12/21 07:05:51;;;;;;;7.90;3.83;;;17.70;76.70;;;;;;5051013;28;20438;-74
2021/12/21 07:08:23;;;;;;;8.07;3.83;;;17.70;77.00;;;;;;5050450;28;20108;-75
2021/12/21 07:11:10;;;;;;;6.57;4.10;;;17.70;76.90;;;;;;5050968;28;20024;-75
2021/12/21 07:19:04;;;;;;;8.32;4.00;;;17.70;77.10;;;;;;5050375;28;20029;-75
2021/12/21 07:21:30;;;;;;;10.57;4.40;;;17.80;77.20;;;;;;5050880;28;20033;-76
2021/12/21 07:23:55;;;;;;;7.03;3.95;;;17.70;76.90;;;;;;5050891;28;20029;-76
2021/12/21 07:26:21;;;;;;;9.48;3.63;;;17.70;76.70;;;;;;5065750;28;20488;-75
2021/12/21 07:28:47;;;;;;;9.45;3.95;;;17.70;76.80;;;;;;5044013;28;20036;-75
2021/12/21 07:31:13;;;;;;;7.82;3.78;;;17.70;76.50;;;;;;5038071;28;20090;-75
2021/12/21 07:33:38;;;;;;;11.00;4.47;;;17.70;76.70;;;;;;5032877;28;20022;-74
2021/12/21 07:36:04;;;;;;;7.07;3.45;;;17.70;76.60;;;;;;5038383;28;20040;-74
2021/12/21 07:38:32;;;;;;;7.53;3.65;;;17.70;76.40;;;;;;5032823;28;20419;-73
2021/12/21 07:41:01;;;;;;;7.93;3.70;;;17.80;76.60;;;;;;5050644;28;20472;-75
2021/12/21 07:43:28;;;;;;;5.72;3.47;;;17.70;76.50;;;;;;5050311;28;20429;-74
2021/12/21 07:45:53;;;;;;;5.90;3.47;;;17.70;75.60;;;;;;5050319;28;20026;-76
2021/12/21 07:48:19;;;;;;;7.75;4.45;;;17.70;76.20;;;;;;5032401;28;20033;-78
2021/12/21 07:50:46;;;;;;;9.75;3.92;;;17.70;76.70;;;;;;5036149;28;20079;-78
2021/12/21 07:53:14;;;;;;;7.20;4.18;;;17.70;76.40;;;;;;5032271;28;20120;-77
2021/12/21 07:55:39;;;;;;;10.32;4.97;;;17.70;76.70;;;;;;5051089;28;20021;-76
2021/12/21 07:58:05;;;;;;;10.30;4.55;;;17.70;76.60;;;;;;5052938;28;20033;-76
2021/12/21 08:00:31;;;;;;;9.63;4.57;;;17.70;77.10;;;;;;5036307;28;20063;-75
2021/12/21 08:02:57;;;;;;;10.00;5.45;;;17.70;77.10;;;;;;5054182;28;20028;-76
2021/12/21 08:05:23;;;;;;;12.13;5.72;;;17.70;77.10;;;;;;5053768;28;20017;-76
2021/12/21 08:07:55;;;;;;;14.75;5.47;;;17.70;77.00;;;;;;5054147;28;20049;-77
2021/12/21 08:10:30;;;;;;;12.68;5.60;;;17.70;76.80;;;;;;5053828;28;20128;-74
2021/12/21 08:12:57;;;;;;;11.70;5.57;;;17.60;76.30;;;;;;5053487;28;20017;-79
2021/12/21 08:15:24;;;;;;;8.93;4.60;;;17.60;76.10;;;;;;5053216;28;20288;-81
2021/12/21 08:17:49;;;;;;;10.98;5.15;;;17.70;75.80;;;;;;5029408;28;20025;-75
2021/12/21 08:20:16;;;;;;;12.20;5.60;;;17.70;75.90;;;;;;5050196;28;20056;-73
2021/12/21 08:22:41;;;;;;;9.95;5.32;;;17.70;76.20;;;;;;5054043;28;20423;-75
2021/12/21 08:25:08;;;;;;;12.25;5.70;;;17.70;76.00;;;;;;5053666;28;20480;-74
2021/12/21 08:27:33;;;;;;;8.32;4.40;;;17.70;76.10;;;;;;5035932;28;20052;-75
2021/12/21 08:29:59;;;;;;;14.93;5.25;;;17.70;76.00;;;;;;5053499;28;20079;-75
2021/12/21 08:32:24;;;;;;;11.02;4.40;;;17.70;76.30;;;;;;5053952;28;20052;-74
2021/12/21 08:34:51;;;;;;;16.65;5.05;;;17.70;76.50;;;;;;5053650;28;20510;-75
2021/12/21 08:37:17;;;;;;;11.85;4.90;;;17.70;76.60;;;;;;5034890;28;20041;-74
2021/12/21 08:39:42;;;;;;;11.75;5.00;;;17.70;76.90;;;;;;5033478;28;20024;-76
2021/12/21 08:42:13;;;;;;;13.10;5.35;;;17.70;77.00;;;;;;5015549;28;20481;-78
2021/12/21 08:44:40;;;;;;;11.40;5.32;;;17.60;77.10;;;;;;5033711;28;20026;-75
2021/12/21 08:47:06;;;;;;;10.23;4.85;;;17.60;77.00;;;;;;5033014;28;20030;-75
2021/12/21 08:49:32;;;;;;;13.02;5.60;;;17.60;77.00;;;;;;5015529;28;20541;-75
2021/12/21 08:51:57;;;;;;;14.88;6.22;;;17.60;76.80;;;;;;5043187;28;20037;-82
2021/12/21 08:54:23;;;;;;;12.63;5.78;;;17.50;55.40;;;;;;5049792;28;20388;-76
2021/12/21 08:56:50;;;;;;;11.63;6.35;;;17.50;55.60;;;;;;5052418;28;20480;-74
2021/12/21 08:59:17;;;;;;;9.88;5.50;;;17.50;55.70;;;;;;5049459;28;20423;-74
2021/12/21 09:01:44;;;;;;;11.40;5.28;;;17.50;55.80;;;;;;5053006;28;20075;-75
2021/12/21 09:04:10;;;;;;;10.27;5.07;;;17.50;55.20;;;;;;5035094;28;20052;-75
2021/12/21 09:06:36;;;;;;;10.35;5.10;;;17.50;55.00;;;;;;5052751;28;20056;-76
2021/12/21 09:09:02;;;;;;;11.52;4.40;;;17.50;55.10;;;;;;5029761;28;20065;-77
2021/12/21 09:11:28;;;;;;;12.10;4.70;;;17.50;55.00;;;;;;5032648;28;20397;-75
2021/12/21 09:13:53;;;;;;;8.07;5.05;;;17.60;55.10;;;;;;5032992;28;20025;-76
2021/12/21 09:16:19;;;;;;;10.32;4.47;;;17.60;55.30;;;;;;5032516;28;20045;-76
2021/12/21 09:18:45;;;;;;;10.50;4.43;;;17.70;55.40;;;;;;5015184;28;20029;-76
2021/12/21 09:21:11;;;;;;;11.63;4.45;;;17.70;55.40;;;;;;5032625;28;20500;-75
2021/12/21 09:23:36;;;;;;;12.80;4.90;;;17.80;55.50;;;;;;5032842;28;20021;-76
2021/12/21 09:26:02;;;;;;;9.05;5.00;;;17.80;55.60;;;;;;5032460;28;20041;-75
2021/12/21 09:28:28;;;;;;;9.38;4.63;;;17.90;55.50;;;;;;5039717;28;20025;-75
2021/12/21 09:30:54;;;;;;;11.25;5.55;;;17.90;55.50;;;;;;5032703;28;20049;-75
2021/12/21 09:33:20;;;;;;;9.93;4.50;;;18.00;55.50;;;;;;5032370;28;20508;-76
2021/12/21 09:35:45;;;;;;;9.68;4.15;;;18.00;55.30;;;;;;5037522;28;20111;-79
2021/12/21 09:38:11;;;;;;;9.77;4.88;;;18.10;55.40;;;;;;5032333;28;20035;-76
2021/12/21 09:40:40;;;;;;;10.57;3.97;;;18.10;55.60;;;;;;5032428;28;20025;-78
2021/12/21 09:43:11;;;;;;;11.45;4.63;;;18.20;55.50;;;;;;5032493;28;20084;-75
2021/12/21 09:45:37;;;;;;;9.02;5.00;;;18.30;55.40;;;;;;5032102;28;20034;-80
2021/12/21 09:48:04;;;;;;;12.98;4.80;;;18.30;55.50;;;;;;5031948;28;20026;-76
2021/12/21 09:50:30;;;;;;;10.23;5.75;;;18.30;55.30;;;;;;5032358;28;20083;-76
2021/12/21 09:52:56;;;;;;;11.98;4.45;;;18.40;55.10;;;;;;5032266;28;20481;-78
2021/12/21 09:55:22;;;;;;;17.33;5.90;;;18.50;55.20;;;;;;5031856;28;20036;-74
2021/12/21 09:57:49;;;;;;;13.77;5.07;;;18.50;55.20;;;;;;5031942;28;20030;-74
2021/12/21 10:00:19;;;;;;;10.27;5.32;;;18.70;55.40;;;;;;5014162;28;20032;-77
2021/12/21 10:02:45;;;;;;;12.75;4.75;;;18.80;55.30;;;;;;5032146;28;20137;-76
2021/12/21 10:05:15;;;;;;;22.08;6.68;;;19.00;55.10;;;;;;5014316;28;20513;-75
2021/12/21 10:07:41;;;;;;;19.30;5.75;;;18.90;54.90;;;;;;5045103;28;20518;-78
2021/12/21 10:10:09;;;;;;;12.98;5.30;;;18.90;54.80;;;;;;5051641;28;20025;-75
2021/12/21 10:12:46;;;;;;;11.55;5.18;;;19.00;55.20;;;;;;5051707;28;20029;-79
2021/12/21 10:15:18;;;;;;;9.77;5.03;;;19.00;55.60;;;;;;5051837;28;20021;-76
2021/12/21 10:17:52;;;;;;;10.10;4.68;;;19.00;55.80;;;;;;5051560;28;20037;-77
2021/12/21 10:20:36;;;;;;;9.77;4.95;;;19.10;55.90;;;;;;5047402;28;20032;-77
2021/12/21 10:23:13;;;;;;;12.30;4.95;;;19.10;56.00;;;;;;5033431;28;20021;-79
2021/12/21 10:25:50;;;;;;;11.25;4.55;;;19.20;55.90;;;;;;5033736;28;20402;-77
2021/12/21 10:28:34;;;;;;;12.23;4.75;;;19.20;55.80;;;;;;5051035;28;20021;-77
2021/12/21 10:31:03;;;;;;;12.15;4.90;;;19.30;55.60;;;;;;5051189;28;20078;-83
2021/12/21 10:33:30;;;;;;;10.07;5.28;;;;;;;;;;5040263;28;20021;-77
2021/12/21 10:35:57;;;;;;;8.35;4.28;;;;;;;;;;5040042;28;20033;-76
2021/12/21 10:38:34;;;;;;;9.00;5.20;;;19.40;55.30;;;;;;5050891;28;20021;-76
2021/12/21 10:41:15;;;;;;;11.15;5.18;;;19.70;54.40;;;;;;5050788;28;20511;-77
2021/12/21 10:43:41;;;;;;;13.30;6.22;;;;;;;;;;5018995;28;20025;-77
2021/12/21 10:46:08;;;;;;;11.75;4.90;;;;;;;;;;5043060;28;20029;-76
2021/12/21 10:48:37;;;;;;;11.77;5.32;;;;;;;;;;5052792;28;20032;-77
2021/12/21 10:51:08;;;;;;;11.23;5.65;;;19.80;54.80;;;;;;5042389;28;20133;-77
2021/12/21 10:53:37;;;;;;;12.07;6.15;;;20.10;54.40;;;;;;5039277;28;20104;-78
2021/12/21 10:56:08;;;;;;;13.98;7.05;;;20.00;53.90;;;;;;5032860;28;20040;-78
2021/12/21 10:58:43;;;;;;;13.82;5.90;;;20.10;54.00;;;;;;5031186;28;20992;-77
2021/12/21 11:01:11;;;;;;;13.87;6.03;;;20.10;53.80;;;;;;5037327;28;20423;-79
2021/12/21 11:03:45;;;;;;;14.43;5.50;;;20.20;53.90;;;;;;5040049;28;20041;-78
2021/12/21 11:06:29;;;;;;;12.95;6.60;;;20.30;53.80;;;;;;5033431;28;20021;-78
2021/12/21 11:08:56;;;;;;;14.52;6.30;;;20.30;53.90;;;;;;5040579;28;20048;-77
2021/12/21 11:11:33;;;;;;;12.38;5.88;;;20.40;54.00;;;;;;5020558;28;20073;-77
2021/12/21 11:14:09;;;;;;;15.25;6.85;;;;;;;;;;5037987;28;20024;-80
2021/12/21 11:16:35;;;;;;;10.10;5.28;;;;;;;;;;5040360;28;20045;-80
2021/12/21 11:19:01;;;;;;;13.85;6.45;;;;;;;;;;5041351;28;20044;-79
2021/12/21 11:21:29;;;;;;;16.27;6.30;;;20.40;53.70;;;;;;5050768;28;20064;-79
2021/12/21 11:23:56;;;;;;;13.38;6.95;;;;;;;;;;5050912;28;20025;-79
2021/12/21 11:26:25;;;;;;;16.75;7.05;;;20.50;53.00;;;;;;5032635;28;20025;-79
2021/12/21 11:28:51;;;;;;;12.85;7.20;;;21.90;49.50;;;;;;5047360;28;20025;-79
2021/12/21 11:31:17;;;;;;;14.02;7.47;;;22.40;48.40;;;;;;5052188;28;20040;-79
2021/12/21 11:33:46;;;;;;;15.80;7.90;;;22.40;48.30;;;;;;5054929;28;20096;-79
2021/12/21 11:39:02;;;;;;;15.88;8.40;;;21.80;49.40;;;;;;5048482;28;20033;-79
2021/12/21 11:41:29;;;;;;;14.52;6.95;;;21.70;49.60;;;;;;5035044;28;20171;-79
2021/12/21 11:44:08;;;;;;;16.58;8.40;;;21.60;49.70;;;;;;5042322;28;20378;-79
2021/12/21 11:46:50;;;;;;;19.70;9.48;;;21.80;49.30;;;;;;5042481;28;20022;-80
2021/12/21 11:49:23;;;;;;;17.00;8.65;;;22.40;48.20;;;;;;5042972;28;20013;-80
2021/12/21 11:51:49;;;;;;;13.48;7.55;;;23.00;46.90;;;;;;5034378;28;20091;-79
2021/12/21 11:54:22;;;;;;;15.27;7.55;;;23.50;46.00;;;;;;5039527;28;20025;-78
2021/12/21 11:56:47;;;;;;;16.42;8.82;;;23.90;45.30;;;;;;5040058;28;20036;-79
2021/12/21 11:59:22;;;;;;;25.95;10.05;;;24.20;45.20;;;;;;5042473;28;20017;-78
2021/12/21 12:01:47;;;;;;;17.23;9.25;;;24.40;45.40;;;;;;5039855;28;20452;-79
2021/12/21 12:04:13;;;;;;;18.27;8.90;;;24.50;44.90;;;;;;5040800;28;20017;-78
2021/12/21 12:06:56;;;;;;;21.40;8.93;;;24.70;44.30;;;;;;5044443;28;20382;-79
2021/12/21 12:09:27;;;;;;;16.83;9.48;;;24.80;44.20;;;;;;5040052;28;20048;-79
2021/12/21 12:12:12;;;;;;;19.42;10.15;;;24.80;44.00;;;;;;5042383;28;20499;-80
2021/12/21 12:14:38;;;;;;;21.60;10.05;;;24.80;44.30;;;;;;5041952;28;20036;-79
2021/12/21 12:17:16;;;;;;;14.55;8.73;;;24.90;44.10;;;;;;5038253;28;20535;-78
2021/12/21 12:19:55;;;;;;;16.25;8.43;;;24.80;44.10;;;;;;5041012;28;20102;-78
2021/12/21 12:22:32;;;;;;;15.95;8.55;;;24.90;44.10;;;;;;5040849;28;20036;-78
2021/12/21 12:24:58;;;;;;;16.05;8.95;;;24.90;43.40;;;;;;5041578;28;20024;-78
2021/12/21 12:27:27;;;;;;;17.05;9.30;;;25.00;43.60;;;;;;5043861;28;20067;-80
2021/12/21 12:29:56;;;;;;;17.63;9.52;;;25.00;43.30;;;;;;5041348;28;20104;-79
2021/12/21 12:32:55;;;;;;;17.23;8.82;;;24.90;43.20;;;;;;5040292;28;20032;-80
2021/12/21 12:35:24;;;;;;;19.52;9.60;;;25.00;43.20;;;;;;5033435;28;20041;-77
2021/12/21 12:37:52;;;;;;;19.10;8.70;;;25.10;43.40;;;;;;5053049;28;20024;-77
2021/12/21 12:40:20;;;;;;;16.02;8.73;;;25.10;43.70;;;;;;5053270;28;20021;-78
2021/12/21 12:42:56;;;;;;;15.07;8.60;;;25.00;43.20;;;;;;5052553;28;20384;-77
2021/12/21 12:45:23;;;;;;;17.42;8.88;;;24.90;43.20;;;;;;5035200;28;20060;-76
2021/12/21 12:47:54;;;;;;;16.85;8.10;;;24.90;43.40;;;;;;5050259;28;20112;-78
2021/12/21 12:50:21;;;;;;;17.38;8.70;;;25.00;42.80;;;;;;5036142;28;20373;-78
2021/12/21 12:52:53;;;;;;;18.08;8.20;;;24.80;43.20;;;;;;5036081;28;20096;-79
2021/12/21 12:55:20;;;;;;;15.18;9.52;;;24.70;43.30;;;;;;5033777;28;20573;-78
2021/12/21 12:57:55;;;;;;;18.95;8.60;;;24.70;43.50;;;;;;5039023;28;20033;-78
2021/12/21 13:00:21;;;;;;;14.90;8.15;;;24.60;43.40;;;;;;5034788;28;20366;-79
2021/12/21 13:03:00;;;;;;;16.02;7.95;;;24.60;43.90;;;;;;5041298;28;20029;-79
2021/12/21 13:05:36;;;;;;;15.43;9.07;;;24.60;44.40;;;;;;5037109;28;20017;-78
2021/12/21 13:08:15;;;;;;;15.27;8.38;;;24.60;44.00;;;;;;5035670;28;20125;-78
2021/12/21 13:10:47;;;;;;;18.35;8.95;;;24.50;44.60;;;;;;5036035;28;20029;-79
2021/12/21 13:13:13;;;;;;;16.42;8.27;;;24.40;45.10;;;;;;5033486;28;20029;-79
2021/12/21 13:15:42;;;;;;;17.83;8.50;;;24.20;45.40;;;;;;5033368;28;20022;-80
2021/12/21 13:18:09;;;;;;;21.25;8.95;;;24.10;45.80;;;;;;5033202;28;20045;-79
2021/12/21 13:20:36;;;;;;;19.17;9.32;;;23.70;46.60;;;;;;5033173;28;20026;-79
2021/12/21 13:23:31;;;;;;;15.40;8.23;;;23.50;47.20;;;;;;5040486;28;20041;-79
2021/12/21 13:25:57;;;;;;;17.13;8.77;;;23.20;47.50;;;;;;5026924;28;20025;-80
2021/12/21 13:28:23;;;;;;;15.27;8.18;;;23.10;47.70;;;;;;5040765;28;20532;-80
2021/12/21 13:30:54;;;;;;;17.58;8.52;;;22.90;47.90;;;;;;5041927;28;20033;-80
2021/12/21 13:33:23;;;;;;;15.93;7.60;;;22.70;48.10;;;;;;5040000;28;20119;-78
2021/12/21 13:35:57;;;;;;;15.15;7.95;;;22.50;48.50;;;;;;5042948;28;20524;-78
2021/12/21 13:38:25;;;;;;;13.63;7.70;;;22.40;48.50;;;;;;5052862;28;20025;-78
2021/12/21 13:41:02;;;;;;;16.00;7.93;;;22.30;48.70;;;;;;5051051;28;20115;-78
2021/12/21 13:43:29;;;;;;;15.18;7.45;;;22.20;48.90;;;;;;5025806;28;20030;-77
2021/12/21 13:46:10;;;;;;;18.15;7.18;;;22.10;49.00;;;;;;5022959;28;20500;-78
2021/12/21 13:48:36;;;;;;;13.82;7.57;;;22.10;49.20;;;;;;5039758;28;20163;-74
2021/12/21 13:51:11;;;;;;;16.65;7.30;;;22.00;48.80;;;;;;5043440;28;20108;-75
2021/12/21 13:53:43;;;;;;;16.20;7.30;;;21.90;48.50;;;;;;5047068;28;20493;-76
2021/12/21 13:56:16;;;;;;;14.20;6.97;;;21.80;48.90;;;;;;5034152;28;20025;-75
2021/12/21 13:58:42;;;;;;;13.80;7.00;;;21.80;48.90;;;;;;5036768;28;20031;-77
2021/12/21 14:01:20;;;;;;;11.43;7.40;;;21.80;49.30;;;;;;5032590;28;20036;-76
2021/12/21 14:03:56;;;;;;;11.75;6.47;;;21.70;49.40;;;;;;5032852;28;20029;-76